createdAt,value
2018-06-04T00:02:10.762Z,21.90
2018-06-04T00:04:37.744Z,21.80
2018-06-04T00:07:04.754Z,21.70
2018-06-04T00:09:31.766Z,21.70
2018-06-04T00:11:58.848Z,21.70
2018-06-04T00:14:25.857Z,21.70
2018-06-04T00:16:52.945Z,21.60
2018-06-04T00:19:19.975Z,21.50
2018-06-04T00:21:47.036Z,21.60
2018-06-04T00:24:14.050Z,21.60
2018-06-04T00:26:41.043Z,21.60
2018-06-04T00:29:08.058Z,21.50
2018-06-04T00:31:35.146Z,21.30
2018-06-04T00:34:02.204Z,21.20
2018-06-04T00:36:29.237Z,21.20
2018-06-04T00:38:56.330Z,21.40
2018-06-04T00:41:23.417Z,21.60
2018-06-04T00:43:50.405Z,21.70
2018-06-04T00:46:17.516Z,21.80
2018-06-04T00:48:44.543Z,21.70
2018-06-04T00:51:11.604Z,21.50
2018-06-04T00:53:38.620Z,21.50
2018-06-04T00:56:17.064Z,21.50
2018-06-04T00:58:44.149Z,21.40
2018-06-04T01:01:11.229Z,21.40
2018-06-04T01:03:38.229Z,21.40
2018-06-04T01:06:05.246Z,21.40
2018-06-04T01:08:32.276Z,21.30
2018-06-04T01:10:59.341Z,21.40
2018-06-04T01:13:26.410Z,21.40
2018-06-04T01:15:53.485Z,21.50
2018-06-04T01:18:20.592Z,21.50
2018-06-04T01:20:47.733Z,21.60
2018-06-04T01:23:14.769Z,21.70
2018-06-04T01:25:41.785Z,21.60
2018-06-04T01:28:08.832Z,21.60
2018-06-04T01:30:35.900Z,21.60
2018-06-04T01:33:03.261Z,21.60
2018-06-04T01:35:30.271Z,21.60
2018-06-04T01:37:57.291Z,21.50
2018-06-04T01:40:24.454Z,21.60
2018-06-04T01:42:51.504Z,21.60
2018-06-04T01:45:18.530Z,21.60
2018-06-04T01:47:45.544Z,21.40
2018-06-04T01:50:13.212Z,21.50
2018-06-04T01:55:07.362Z,21.20
2018-06-04T01:57:34.504Z,21.20
2018-06-04T02:00:01.590Z,21.20
2018-06-04T02:02:28.701Z,21.20
2018-06-04T02:04:55.829Z,21.30
2018-06-04T02:07:22.832Z,21.20
2018-06-04T02:09:50.005Z,21.30
2018-06-04T02:12:17.090Z,21.30
2018-06-04T02:14:44.122Z,21.30
2018-06-04T02:17:11.144Z,21.20
2018-06-04T02:19:38.208Z,21.20
2018-06-04T02:22:05.262Z,21.10
2018-06-04T02:24:32.333Z,21.00
2018-06-04T02:43:43.637Z,21.10
2018-06-04T02:46:10.689Z,21.30
2018-06-04T02:48:37.776Z,21.40
2018-06-04T02:51:04.848Z,21.30
2018-06-04T02:53:31.921Z,21.20
2018-06-04T02:55:59.102Z,21.20
2018-06-04T02:58:26.195Z,21.20
2018-06-04T03:00:53.244Z,21.20
2018-06-04T03:03:20.260Z,21.30
2018-06-04T03:05:47.253Z,21.30
2018-06-04T03:08:14.924Z,21.30
2018-06-04T03:10:42.077Z,21.10
2018-06-04T03:13:09.332Z,21.20
2018-06-04T03:18:03.437Z,21.20
2018-06-04T03:20:30.508Z,21.10
2018-06-04T03:22:57.549Z,21.10
2018-06-04T03:25:24.664Z,21.00
2018-06-04T03:27:51.724Z,20.80
2018-06-04T03:30:18.952Z,20.90
2018-06-04T03:32:46.035Z,20.90
2018-06-04T03:35:13.159Z,20.60
2018-06-04T03:37:40.204Z,20.40
2018-06-04T03:40:07.248Z,20.30
2018-06-04T03:42:34.332Z,20.20
2018-06-04T03:45:01.380Z,20.10
2018-06-04T03:47:28.608Z,19.90
2018-06-04T03:49:55.636Z,19.90
2018-06-04T03:52:22.645Z,20.00
2018-06-04T03:54:49.647Z,20.30
2018-06-04T03:57:16.708Z,20.40
2018-06-04T03:59:43.724Z,20.20
2018-06-04T04:02:10.729Z,20.10
2018-06-04T04:04:37.774Z,19.80
2018-06-04T04:07:04.948Z,19.90
2018-06-04T04:09:31.968Z,19.80
2018-06-04T04:11:59.078Z,19.80
2018-06-04T04:14:26.148Z,19.80
2018-06-04T04:16:53.944Z,19.90
2018-06-04T04:19:21.070Z,20.00
2018-06-04T04:21:48.658Z,20.10
2018-06-04T04:24:15.865Z,20.30
2018-06-04T04:26:42.955Z,20.50
2018-06-04T04:29:09.968Z,20.70
2018-06-04T04:31:37.022Z,20.90
2018-06-04T04:34:04.077Z,20.80
2018-06-04T04:36:31.122Z,20.90
2018-06-04T04:38:58.161Z,20.80
2018-06-04T04:41:25.517Z,20.90
2018-06-04T04:43:52.550Z,20.80
2018-06-04T04:46:19.794Z,20.80
2018-06-04T04:48:46.858Z,20.80
2018-06-04T04:51:13.909Z,20.80
2018-06-04T04:53:40.914Z,20.80
2018-06-04T04:56:08.515Z,20.80
2018-06-04T05:12:48.116Z,21.00
2018-06-04T05:15:15.240Z,21.00
2018-06-04T05:17:42.372Z,21.10
2018-06-04T05:20:09.666Z,21.20
2018-06-04T05:22:36.791Z,21.10
2018-06-04T05:25:03.892Z,21.10
2018-06-04T05:27:30.926Z,21.10
2018-06-04T05:29:58.043Z,21.20
2018-06-04T05:32:25.132Z,21.20
2018-06-04T05:34:52.237Z,21.30
2018-06-04T05:37:20.311Z,21.30
2018-06-04T05:39:47.430Z,21.40
2018-06-04T05:42:15.051Z,21.40
2018-06-04T05:44:42.043Z,21.60
2018-06-04T05:47:09.301Z,21.60
2018-06-04T05:49:36.655Z,21.60
2018-06-04T05:52:03.698Z,21.50
2018-06-04T05:54:30.732Z,21.60
2018-06-04T05:56:57.772Z,21.70
2018-06-04T05:59:25.009Z,21.60
2018-06-04T06:01:52.180Z,21.60
2018-06-04T06:04:19.248Z,21.40
2018-06-04T06:06:46.324Z,21.30
2018-06-04T06:09:13.471Z,21.30
2018-06-04T06:11:40.821Z,21.20
2018-06-04T06:14:08.006Z,21.30
2018-06-04T06:16:35.207Z,21.30
2018-06-04T06:19:02.315Z,21.50
2018-06-04T06:21:30.247Z,21.60
2018-06-04T06:23:57.573Z,21.90
2018-06-04T06:26:24.734Z,22.10
2018-06-04T06:28:51.939Z,22.20
2018-06-04T06:31:19.142Z,22.30
2018-06-04T06:33:46.729Z,22.50
2018-06-04T06:38:41.061Z,22.60
2018-06-04T06:41:08.208Z,22.60
2018-06-04T06:43:35.389Z,22.70
2018-06-04T06:46:02.515Z,22.80
2018-06-04T06:48:29.689Z,22.90
2018-06-04T06:50:56.724Z,22.90
2018-06-04T07:10:09.344Z,22.90
2018-06-04T07:12:36.565Z,23.00
2018-06-04T07:15:03.831Z,23.30
2018-06-04T07:17:31.509Z,23.30
2018-06-04T07:19:58.637Z,23.40
2018-06-04T07:22:26.316Z,23.30
2018-06-04T07:24:53.409Z,23.50
2018-06-04T07:27:20.446Z,23.60
2018-06-04T07:29:47.557Z,23.70
2018-06-04T07:32:14.672Z,23.70
2018-06-04T07:34:42.741Z,23.90
2018-06-04T07:37:09.909Z,23.90
2018-06-04T07:39:37.320Z,23.90
2018-06-04T07:42:05.203Z,23.90
2018-06-04T07:44:32.856Z,24.00
2018-06-04T07:46:59.874Z,24.00
2018-06-04T07:49:26.871Z,24.10
2018-06-04T07:51:53.953Z,24.10
2018-06-04T07:54:21.045Z,24.10
2018-06-04T07:56:48.109Z,24.20
2018-06-04T07:59:15.208Z,24.40
2018-06-04T08:01:42.689Z,24.60
2018-06-04T08:04:09.903Z,24.60
2018-06-04T08:06:37.899Z,24.40
2018-06-04T08:09:06.751Z,24.40
2018-06-04T08:11:33.887Z,24.40
2018-06-04T08:14:01.241Z,24.50
2018-06-04T08:16:28.373Z,24.70
2018-06-04T08:18:55.772Z,24.70
2018-06-04T08:21:23.785Z,24.90
2018-06-04T08:23:50.924Z,25.00
2018-06-04T08:26:18.547Z,25.00
2018-06-04T08:28:45.589Z,24.90
2018-06-04T08:33:39.932Z,25.10
2018-06-04T08:36:07.456Z,25.20
2018-06-04T08:38:34.613Z,25.20
2018-06-04T08:41:02.077Z,25.20
2018-06-04T08:43:29.407Z,25.20
2018-06-04T08:45:56.526Z,25.00
2018-06-04T08:48:23.632Z,25.10
2018-06-04T08:50:50.726Z,25.20
2018-06-04T08:55:45.019Z,25.50
2018-06-04T08:58:12.210Z,25.40
2018-06-04T09:00:40.573Z,25.60
2018-06-04T09:03:07.620Z,25.60
2018-06-04T09:05:34.972Z,25.60
2018-06-04T09:08:02.694Z,25.70
2018-06-04T09:10:30.371Z,25.80
2018-06-04T09:12:57.446Z,25.90
2018-06-04T09:15:24.602Z,25.90
2018-06-04T09:17:51.702Z,25.80
2018-06-04T09:20:18.816Z,25.90
2018-06-04T09:22:45.919Z,26.00
2018-06-04T09:25:13.960Z,26.10
2018-06-04T09:27:41.067Z,26.00
2018-06-04T09:30:08.178Z,25.90
2018-06-04T09:32:35.276Z,26.20
2018-06-04T09:35:02.387Z,26.40
2018-06-04T09:37:29.440Z,26.40
2018-06-04T09:39:56.521Z,26.20
2018-06-04T09:42:25.077Z,26.30
2018-06-04T09:44:52.233Z,26.40
2018-06-04T09:47:20.324Z,26.40
2018-06-04T09:49:47.474Z,26.50
2018-06-04T09:52:14.536Z,26.70
2018-06-04T09:54:42.592Z,26.90
2018-06-04T09:57:10.881Z,27.00
2018-06-04T09:59:38.615Z,27.10
2018-06-04T10:02:05.957Z,27.30
2018-06-04T10:04:33.178Z,27.30
2018-06-04T10:07:01.134Z,27.40
2018-06-04T10:09:28.527Z,27.50
2018-06-04T10:11:55.681Z,27.60
2018-06-04T10:14:23.427Z,27.50
2018-06-04T10:16:50.789Z,27.50
2018-06-04T10:19:18.795Z,27.60
2018-06-04T10:21:46.320Z,27.30
2018-06-04T10:24:14.195Z,27.20
2018-06-04T10:26:42.218Z,27.50
2018-06-04T10:29:09.395Z,27.50
2018-06-04T10:31:37.959Z,27.50
2018-06-04T10:34:06.594Z,27.70
2018-06-04T10:36:33.751Z,27.90
2018-06-04T10:39:01.251Z,27.90
2018-06-04T10:41:29.186Z,28.10
2018-06-04T10:43:57.162Z,28.00
2018-06-04T10:46:24.290Z,28.10
2018-06-04T10:48:51.972Z,28.20
2018-06-04T10:51:19.107Z,28.40
2018-06-04T10:53:46.320Z,28.60
2018-06-04T10:56:15.151Z,28.50
2018-06-04T10:58:42.422Z,28.50
2018-06-04T11:01:09.602Z,28.20
2018-06-04T11:03:37.918Z,28.00
2018-06-04T11:06:07.056Z,28.10
2018-06-04T11:08:35.306Z,28.30
2018-06-04T11:11:02.628Z,28.60
2018-06-04T11:13:29.875Z,28.90
2018-06-04T11:32:42.807Z,29.20
2018-06-04T11:35:09.944Z,29.30
2018-06-04T11:37:37.635Z,29.50
2018-06-04T11:40:06.503Z,29.70
2018-06-04T11:42:33.574Z,30.10
2018-06-04T11:45:00.692Z,30.00
2018-06-04T11:47:27.789Z,29.90
2018-06-04T11:49:55.381Z,29.90
2018-06-04T11:52:23.365Z,29.70
2018-06-04T11:54:50.526Z,29.90
2018-06-04T11:57:19.299Z,30.30
2018-06-04T11:59:46.395Z,30.50
2018-06-04T12:02:13.549Z,30.60
2018-06-04T12:04:40.667Z,30.80
2018-06-04T12:07:07.775Z,30.80
2018-06-04T12:09:35.213Z,30.50
2018-06-04T12:12:02.285Z,30.30
2018-06-04T12:14:29.461Z,30.30
2018-06-04T12:16:57.490Z,30.10
2018-06-04T12:19:24.597Z,29.70
2018-06-04T12:21:51.645Z,29.70
2018-06-04T12:24:18.722Z,29.80
2018-06-04T12:26:46.208Z,29.80
2018-06-04T12:29:13.323Z,30.10
2018-06-04T12:31:40.332Z,30.00
2018-06-04T12:34:07.388Z,30.30
2018-06-04T12:36:34.425Z,30.50
2018-06-04T12:39:01.416Z,30.80
2018-06-04T12:41:28.436Z,30.80
2018-06-04T12:43:56.127Z,31.00
2018-06-04T12:48:51.119Z,30.90
2018-06-04T12:51:18.506Z,31.20
2018-06-04T13:10:30.897Z,32.00
2018-06-04T13:12:58.175Z,32.00
2018-06-04T13:15:25.300Z,31.90
2018-06-04T13:17:52.406Z,31.80
2018-06-04T13:20:19.548Z,31.60
2018-06-04T13:22:46.697Z,31.60
2018-06-04T13:25:13.811Z,31.40
2018-06-04T13:27:41.000Z,31.60
2018-06-04T13:30:09.251Z,31.90
2018-06-04T13:32:36.411Z,31.80
2018-06-04T13:35:03.702Z,31.60
2018-06-04T13:37:30.902Z,31.50
2018-06-04T13:39:58.025Z,31.60
2018-06-04T13:42:25.097Z,31.40
2018-06-04T13:44:52.846Z,31.40
2018-06-04T13:47:19.972Z,31.30
2018-06-04T13:49:47.054Z,31.70
2018-06-04T13:52:14.178Z,32.30
2018-06-04T13:54:41.336Z,32.60
2018-06-04T13:57:16.106Z,32.90
2018-06-04T13:59:43.510Z,32.90
2018-06-04T14:02:12.780Z,32.70
2018-06-04T14:04:39.886Z,32.90
2018-06-04T14:07:07.544Z,33.10
2018-06-04T14:09:34.602Z,32.80
2018-06-04T14:12:01.710Z,32.60
2018-06-04T14:14:28.775Z,32.50
2018-06-04T14:16:55.960Z,32.50
2018-06-04T14:19:23.134Z,32.50
2018-06-04T14:21:50.281Z,32.40
2018-06-04T14:24:17.390Z,32.60
2018-06-04T14:29:11.931Z,32.30
2018-06-04T14:31:39.123Z,32.50
2018-06-04T14:34:06.915Z,32.80
2018-06-04T14:39:06.469Z,33.30
2018-06-04T14:41:35.234Z,33.30
2018-06-04T14:44:02.726Z,33.40
2018-06-04T14:46:30.707Z,33.30
2018-06-04T14:48:58.601Z,33.20
2018-06-04T14:51:29.032Z,33.10
2018-06-04T14:53:57.596Z,33.50
2018-06-04T14:56:24.959Z,33.50
2018-06-04T14:58:53.126Z,33.40
2018-06-04T15:01:21.241Z,33.20
2018-06-04T15:06:17.043Z,33.60
2018-06-04T15:08:46.373Z,33.80
2018-06-04T15:11:14.338Z,33.80
2018-06-04T15:13:44.869Z,33.50
2018-06-04T15:16:12.860Z,33.30
2018-06-04T15:18:45.231Z,33.40
2018-06-04T15:21:14.025Z,33.30
2018-06-04T15:40:27.721Z,33.80
2018-06-04T15:42:57.022Z,33.70
2018-06-04T15:45:27.090Z,33.80
2018-06-04T15:47:55.380Z,33.90
2018-06-04T15:50:23.539Z,33.90
2018-06-04T15:55:20.974Z,33.70
2018-06-04T15:57:48.811Z,33.70
2018-06-04T16:00:17.800Z,34.00
2018-06-04T16:02:46.583Z,33.80
2018-06-04T16:05:17.780Z,33.50
2018-06-04T16:07:47.003Z,33.50
2018-06-04T16:10:14.259Z,33.70
2018-06-04T16:12:41.505Z,33.60
2018-06-04T16:15:09.441Z,33.50
2018-06-04T16:17:37.980Z,33.60
2018-06-04T16:20:05.313Z,33.70
2018-06-04T16:22:32.700Z,33.80
2018-06-04T16:25:00.210Z,33.80
2018-06-04T16:27:28.527Z,34.00
2018-06-04T16:29:55.692Z,34.00
2018-06-04T16:32:22.872Z,33.90
2018-06-04T16:34:51.425Z,33.70
2018-06-04T16:37:19.302Z,33.90
2018-06-04T16:39:47.549Z,34.20
2018-06-04T16:42:15.607Z,34.50
2018-06-04T16:44:42.847Z,34.50
2018-06-04T16:49:37.182Z,33.90
2018-06-04T16:52:04.500Z,33.90
2018-06-04T16:54:32.728Z,34.20
2018-06-04T16:59:27.174Z,34.40
2018-06-04T17:01:54.698Z,34.70
2018-06-04T17:04:22.599Z,35.00
2018-06-04T17:06:49.772Z,34.90
2018-06-04T17:09:17.804Z,34.40
2018-06-04T17:11:45.334Z,33.80
2018-06-04T17:14:12.569Z,33.80
2018-06-04T17:16:40.026Z,33.80
2018-06-04T17:19:07.384Z,33.70
2018-06-04T17:21:35.313Z,33.80
2018-06-04T17:24:03.177Z,34.10
2018-06-04T17:26:30.872Z,34.40
2018-06-04T17:28:58.644Z,34.50
2018-06-04T17:31:25.843Z,34.50
2018-06-04T17:33:53.018Z,34.40
2018-06-04T17:36:22.650Z,34.60
2018-06-04T17:38:49.863Z,34.70
2018-06-04T17:41:17.803Z,34.70
2018-06-04T17:43:44.949Z,34.80
2018-06-04T17:46:12.043Z,34.80
2018-06-04T17:48:39.840Z,34.90
2018-06-04T17:51:07.118Z,34.00
2018-06-04T17:53:34.921Z,33.70
2018-06-04T17:56:02.376Z,33.70
2018-06-04T17:58:29.626Z,33.70
2018-06-04T18:00:56.890Z,33.70
2018-06-04T18:03:25.386Z,33.40
2018-06-04T18:05:53.357Z,33.30
2018-06-04T18:08:20.715Z,33.40
2018-06-04T18:10:48.330Z,33.50
2018-06-04T18:13:15.967Z,33.50
2018-06-04T18:15:44.685Z,33.50
2018-06-04T18:18:12.288Z,33.60
2018-06-04T18:20:40.879Z,33.50
2018-06-04T18:23:08.164Z,33.50
2018-06-04T18:25:36.905Z,33.30
2018-06-04T18:28:05.790Z,33.40
2018-06-04T18:30:34.193Z,33.50
2018-06-04T18:33:01.574Z,33.50
2018-06-04T18:35:28.817Z,33.60
2018-06-04T18:37:57.407Z,33.60
2018-06-04T18:40:25.638Z,33.70
2018-06-04T18:42:53.838Z,33.70
2018-06-04T18:45:21.961Z,33.70
2018-06-04T18:47:49.134Z,33.70
2018-06-04T18:50:16.448Z,33.60
2018-06-04T18:52:45.189Z,33.70
2018-06-04T18:55:12.606Z,33.50
2018-06-04T18:57:39.757Z,33.30
2018-06-04T19:00:06.932Z,33.00
2018-06-04T19:02:34.131Z,32.50
2018-06-04T19:05:02.931Z,31.80
2018-06-04T19:07:30.599Z,31.10
2018-06-04T19:12:27.286Z,30.10
2018-06-04T19:14:54.407Z,29.80
2018-06-04T19:17:21.771Z,29.50
2018-06-04T19:19:48.806Z,29.40
2018-06-04T19:22:15.902Z,29.30
2018-06-04T19:41:29.276Z,27.90
2018-06-04T19:43:57.251Z,27.80
2018-06-04T19:46:24.416Z,27.70
2018-06-04T19:48:52.103Z,27.60
2018-06-04T19:51:19.318Z,27.50
2018-06-04T19:53:48.036Z,27.40
2018-06-04T19:56:15.461Z,27.40
2018-06-04T19:58:42.648Z,27.40
2018-06-04T20:01:10.620Z,27.30
2018-06-04T20:03:38.275Z,27.10
2018-06-04T20:06:05.572Z,27.00
2018-06-04T20:08:32.884Z,26.90
2018-06-04T20:10:59.978Z,26.90
2018-06-04T20:13:27.490Z,26.80
2018-06-04T20:15:54.639Z,26.70
2018-06-04T20:18:22.361Z,26.70
2018-06-04T20:20:50.385Z,26.50
2018-06-04T20:23:18.421Z,26.50
2018-06-04T20:25:45.590Z,26.40
2018-06-04T20:28:13.002Z,26.50
2018-06-04T20:30:40.133Z,26.50
2018-06-04T20:33:07.392Z,26.40
2018-06-04T20:35:34.595Z,26.40
2018-06-04T20:38:02.412Z,26.40
2018-06-04T20:40:29.566Z,26.40
2018-06-04T20:42:56.644Z,26.20
2018-06-04T20:45:23.791Z,26.20
2018-06-04T20:47:51.236Z,26.20
2018-06-04T20:50:18.342Z,26.30
2018-06-04T20:52:47.934Z,26.30
2018-06-04T20:55:15.176Z,26.30
2018-06-04T21:00:09.587Z,25.90
2018-06-04T21:02:37.875Z,25.90
2018-06-04T21:05:05.275Z,25.80
2018-06-04T21:10:00.259Z,25.80
2018-06-04T21:12:27.451Z,25.70
2018-06-04T21:14:58.681Z,25.70
2018-06-04T21:17:26.615Z,25.70
2018-06-04T21:19:57.945Z,25.60
2018-06-04T21:22:26.707Z,25.60
2018-06-04T21:24:54.139Z,25.50
2018-06-04T21:27:22.079Z,25.40
2018-06-04T21:29:50.357Z,25.40
2018-06-04T21:32:18.373Z,25.30
2018-06-04T21:34:48.686Z,25.30
2018-06-04T21:37:16.406Z,25.20
2018-06-04T21:39:44.524Z,25.10
2018-06-04T21:42:14.548Z,25.00
2018-06-04T21:44:42.516Z,25.00
2018-06-04T21:47:10.451Z,25.00
2018-06-04T21:49:38.311Z,25.00
2018-06-04T21:52:05.516Z,24.80
2018-06-04T21:54:38.434Z,24.70
2018-06-04T21:57:07.156Z,24.60
2018-06-04T21:59:38.167Z,24.60
2018-06-04T22:02:08.927Z,24.60
2018-06-04T22:04:38.864Z,24.60
2018-06-04T22:07:08.483Z,24.60
2018-06-04T22:09:38.377Z,24.50
2018-06-04T22:12:05.632Z,24.50
2018-06-04T22:14:33.375Z,24.40
2018-06-04T22:17:00.552Z,24.30
2018-06-04T22:19:28.202Z,24.30
2018-06-04T22:21:55.862Z,24.30
2018-06-04T22:24:22.964Z,24.20
2018-06-04T22:26:50.153Z,24.10
2018-06-04T22:29:17.849Z,24.10
2018-06-04T22:31:45.019Z,24.00
2018-06-04T22:34:12.369Z,24.10
2018-06-04T22:36:40.085Z,24.10
2018-06-04T22:39:08.051Z,24.10
2018-06-04T22:41:35.214Z,24.10
2018-06-04T22:44:03.053Z,24.00
2018-06-04T22:48:57.335Z,23.80
2018-06-04T22:51:24.507Z,23.70
2018-06-04T22:53:51.628Z,23.70
2018-06-04T22:56:19.109Z,23.60
2018-06-04T22:58:46.222Z,23.50
2018-06-04T23:01:13.576Z,23.50
2018-06-04T23:03:40.715Z,23.50
2018-06-04T23:06:08.145Z,23.40
2018-06-04T23:08:35.262Z,23.30
2018-06-04T23:11:02.416Z,23.20
2018-06-04T23:13:29.559Z,23.20
2018-06-04T23:15:57.578Z,23.00
2018-06-04T23:18:24.678Z,22.90
2018-06-04T23:20:52.416Z,22.90
2018-06-04T23:23:19.621Z,23.00
2018-06-04T23:25:47.360Z,23.00
2018-06-04T23:28:14.504Z,23.00
2018-06-04T23:30:41.662Z,23.00
2018-06-04T23:33:08.861Z,22.90
2018-06-04T23:35:36.279Z,22.80
2018-06-04T23:38:05.546Z,22.70
2018-06-04T23:40:34.761Z,22.60
2018-06-04T23:43:01.899Z,22.70
2018-06-04T23:45:28.983Z,22.60
2018-06-04T23:47:56.084Z,22.50
2018-06-04T23:50:23.243Z,22.60
2018-06-04T23:52:50.452Z,22.60
2018-06-04T23:55:17.683Z,22.60
2018-06-04T23:57:44.951Z,22.60
